createdAt,value
2022-11-30T00:01:40.590Z,100555.75
2022-11-30T00:04:08.198Z,100544.63
2022-11-30T00:06:35.554Z,100540.59
2022-11-30T00:09:02.912Z,100548.63
2022-11-30T00:11:30.992Z,100547.12
2022-11-30T00:13:59.696Z,100533.84
2022-11-30T00:16:27.595Z,100544.44
2022-11-30T00:18:55.300Z,100539.97
2022-11-30T00:21:22.613Z,100546.69
2022-11-30T00:23:49.986Z,100553.50
2022-11-30T00:26:19.309Z,100545.37
2022-11-30T00:28:47.672Z,100538.56
2022-11-30T00:31:16.821Z,100542.44
2022-11-30T00:33:44.720Z,100540.78
2022-11-30T00:36:17.818Z,100542.22
2022-11-30T00:38:45.889Z,100534.81
2022-11-30T00:41:13.720Z,100546.47
2022-11-30T00:43:41.217Z,100544.56
2022-11-30T00:46:12.006Z,100542.63
2022-11-30T00:48:40.083Z,100547.69
2022-11-30T00:51:09.504Z,100550.06
2022-11-30T00:53:37.487Z,100558.06
2022-11-30T00:56:05.558Z,100546.28
2022-11-30T00:58:33.135Z,100549.09
2022-11-30T01:01:01.033Z,100555.19
2022-11-30T01:03:28.363Z,100550.88
2022-11-30T01:05:55.712Z,100559.75
2022-11-30T01:08:25.614Z,100549.97
2022-11-30T01:10:54.698Z,100554.03
2022-11-30T01:13:22.400Z,100566.16
2022-11-30T01:15:50.104Z,100556.56
2022-11-30T01:18:17.536Z,100557.53
2022-11-30T01:20:44.871Z,100551.34
2022-11-30T01:23:12.486Z,100562.41
2022-11-30T01:25:39.880Z,100559.06
2022-11-30T01:28:07.281Z,100549.53
2022-11-30T01:30:34.948Z,100562.00
2022-11-30T01:33:04.104Z,100552.47
2022-11-30T01:35:31.457Z,100544.25
2022-11-30T01:37:59.149Z,100542.53
2022-11-30T01:40:26.471Z,100535.47
2022-11-30T01:42:53.848Z,100532.00
2022-11-30T01:45:21.549Z,100539.56
2022-11-30T01:47:52.465Z,100539.38
2022-11-30T01:50:27.289Z,100537.44
2022-11-30T01:52:57.062Z,100542.03
2022-11-30T01:55:27.452Z,100544.63
2022-11-30T01:57:58.094Z,100538.66
2022-11-30T02:00:25.412Z,100542.78
2022-11-30T02:02:52.970Z,100537.34
2022-11-30T02:05:21.253Z,100537.97
2022-11-30T02:07:48.703Z,100538.75
2022-11-30T02:10:19.674Z,100532.03
2022-11-30T02:13:02.472Z,100526.53
2022-11-30T02:15:36.372Z,100536.19
2022-11-30T02:18:12.783Z,100529.00
2022-11-30T02:20:58.102Z,100535.16
2022-11-30T02:23:43.327Z,100539.81
2022-11-30T02:26:14.984Z,100534.44
2022-11-30T02:29:07.681Z,100531.72
2022-11-30T02:32:08.734Z,100527.00
2022-11-30T02:34:37.545Z,100522.84
2022-11-30T02:37:06.034Z,100524.50
2022-11-30T02:39:33.405Z,100529.66
2022-11-30T02:42:00.991Z,100523.34
2022-11-30T02:44:28.489Z,100514.72
2022-11-30T02:47:14.610Z,100517.66
2022-11-30T02:50:04.907Z,100530.31
2022-11-30T02:52:32.313Z,100528.94
2022-11-30T02:55:01.787Z,100509.72
2022-11-30T02:57:29.135Z,100520.47
2022-11-30T02:59:57.077Z,100517.78
2022-11-30T03:02:24.737Z,100518.03
2022-11-30T03:04:52.115Z,100523.59
2022-11-30T03:07:19.504Z,100516.00
2022-11-30T03:09:47.151Z,100511.09
2022-11-30T03:12:14.484Z,100510.97
2022-11-30T03:14:41.902Z,100511.66
2022-11-30T03:17:09.506Z,100517.97
2022-11-30T03:19:36.847Z,100513.47
2022-11-30T03:22:04.341Z,100519.91
2022-11-30T03:24:31.997Z,100524.28
2022-11-30T03:26:59.703Z,100530.91
2022-11-30T03:29:27.188Z,100531.22
2022-11-30T03:31:54.796Z,100526.34
2022-11-30T03:34:22.820Z,100534.59
2022-11-30T03:36:50.156Z,100535.94
2022-11-30T03:39:17.743Z,100536.97
2022-11-30T03:41:45.060Z,100529.50
2022-11-30T03:44:12.379Z,100532.34
2022-11-30T03:46:40.049Z,100526.38
2022-11-30T03:49:07.453Z,100531.03
2022-11-30T03:51:35.486Z,100527.59
2022-11-30T03:54:03.119Z,100527.12
2022-11-30T03:56:30.502Z,100525.34
2022-11-30T03:58:57.858Z,100532.94
2022-11-30T04:01:25.881Z,100534.63
2022-11-30T04:03:54.322Z,100531.81
2022-11-30T04:06:22.390Z,100538.34
2022-11-30T04:08:50.075Z,100530.72
2022-11-30T04:11:17.784Z,100532.94
2022-11-30T04:13:45.616Z,100524.56
2022-11-30T04:16:13.029Z,100529.59
2022-11-30T04:18:40.664Z,100521.06
2022-11-30T04:21:13.751Z,100527.44
2022-11-30T04:23:41.393Z,100528.97
2022-11-30T04:26:12.287Z,100534.34
2022-11-30T04:28:39.877Z,100525.41
2022-11-30T04:31:07.618Z,100529.06
2022-11-30T04:33:35.076Z,100526.16
2022-11-30T04:36:04.833Z,100521.50
2022-11-30T04:38:32.973Z,100522.81
2022-11-30T04:41:00.347Z,100515.56
2022-11-30T04:43:27.717Z,100532.69
2022-11-30T04:45:55.333Z,100532.00
2022-11-30T04:48:22.651Z,100535.22
2022-11-30T04:50:49.978Z,100534.47
2022-11-30T04:53:17.663Z,100534.12
2022-11-30T04:55:44.998Z,100531.81
2022-11-30T04:58:12.333Z,100532.63
2022-11-30T05:00:39.898Z,100529.25
2022-11-30T05:03:07.210Z,100530.69
2022-11-30T05:05:34.593Z,100520.41
2022-11-30T05:08:02.256Z,100531.50
2022-11-30T05:10:30.414Z,100538.19
2022-11-30T05:12:57.837Z,100531.75
2022-11-30T05:15:25.888Z,100537.44
2022-11-30T05:17:53.206Z,100537.19
2022-11-30T05:20:20.652Z,100538.81
2022-11-30T05:22:48.919Z,100544.59
2022-11-30T05:25:16.462Z,100535.87
2022-11-30T05:27:43.909Z,100544.47
2022-11-30T05:30:12.067Z,100550.78
2022-11-30T05:32:39.373Z,100552.47
2022-11-30T05:35:06.938Z,100549.88
2022-11-30T05:37:34.590Z,100549.53
2022-11-30T05:40:01.937Z,100541.41
2022-11-30T05:42:29.398Z,100544.25
2022-11-30T05:44:57.039Z,100542.31
2022-11-30T05:47:24.365Z,100548.44
2022-11-30T05:49:51.700Z,100550.50
2022-11-30T05:52:19.520Z,100541.84
2022-11-30T05:54:47.022Z,100551.19
2022-11-30T05:57:14.735Z,100553.09
2022-11-30T05:59:42.339Z,100546.66
2022-11-30T06:02:09.766Z,100546.97
2022-11-30T06:04:37.688Z,100546.53
2022-11-30T06:07:05.063Z,100554.16
2022-11-30T06:09:32.766Z,100553.06
2022-11-30T06:12:00.331Z,100549.53
2022-11-30T06:14:27.691Z,100556.28
2022-11-30T06:16:55.163Z,100566.81
2022-11-30T06:19:22.782Z,100563.00
2022-11-30T06:21:50.308Z,100573.06
2022-11-30T06:24:17.742Z,100570.50
2022-11-30T06:26:45.358Z,100573.56
2022-11-30T06:29:12.781Z,100570.22
2022-11-30T06:31:40.192Z,100573.56
2022-11-30T06:34:07.758Z,100572.75
2022-11-30T06:36:36.439Z,100577.38
2022-11-30T06:39:04.469Z,100579.66
2022-11-30T06:41:32.213Z,100579.53
2022-11-30T06:43:59.628Z,100577.34
2022-11-30T06:46:27.790Z,100584.62
2022-11-30T06:48:55.572Z,100582.87
2022-11-30T06:51:22.898Z,100585.81
2022-11-30T06:53:50.236Z,100588.03
2022-11-30T06:56:17.965Z,100586.22
2022-11-30T06:58:45.275Z,100586.44
2022-11-30T07:01:15.222Z,100581.47
2022-11-30T07:03:43.580Z,100587.22
2022-11-30T07:06:12.573Z,100588.22
2022-11-30T07:08:42.262Z,100587.66
2022-11-30T07:11:10.860Z,100579.44
2022-11-30T07:13:38.329Z,100586.00
2022-11-30T07:16:07.351Z,100583.81
2022-11-30T07:18:35.295Z,100583.88
2022-11-30T07:21:04.231Z,100588.69
2022-11-30T07:24:07.506Z,100577.16
2022-11-30T07:26:35.609Z,100575.66
2022-11-30T07:29:05.244Z,100578.84
2022-11-30T07:31:34.600Z,100583.50
2022-11-30T07:34:07.675Z,100578.34
2022-11-30T07:36:35.798Z,100577.38
2022-11-30T07:39:04.145Z,100576.63
2022-11-30T07:41:31.482Z,100581.59
2022-11-30T07:44:01.149Z,100582.22
2022-11-30T07:46:28.732Z,100579.31
2022-11-30T07:48:56.044Z,100576.59
2022-11-30T07:51:23.380Z,100585.31
2022-11-30T07:53:51.312Z,100582.75
2022-11-30T07:56:20.128Z,100581.53
2022-11-30T07:58:48.364Z,100583.69
2022-11-30T08:01:19.177Z,100581.88
2022-11-30T08:03:46.881Z,100585.87
2022-11-30T08:06:22.064Z,100583.91
2022-11-30T08:08:51.218Z,100590.06
2022-11-30T08:11:21.802Z,100582.78
2022-11-30T08:13:49.403Z,100587.19
2022-11-30T08:16:27.981Z,100582.16
2022-11-30T08:18:57.085Z,100580.13
2022-11-30T08:21:24.875Z,100578.22
2022-11-30T08:23:56.065Z,100583.69
2022-11-30T08:26:26.217Z,100577.94
2022-11-30T08:28:53.919Z,100574.84
2022-11-30T08:31:27.276Z,100572.22
2022-11-30T08:34:06.526Z,100563.88
2022-11-30T08:36:34.478Z,100568.16
2022-11-30T08:39:05.020Z,100555.06
2022-11-30T08:41:34.977Z,100556.38
2022-11-30T08:44:02.895Z,100554.59
2022-11-30T08:49:23.569Z,100559.97
2022-11-30T08:52:16.936Z,100549.19
2022-11-30T08:57:33.366Z,100559.63
2022-11-30T09:00:00.962Z,100560.75
2022-11-30T09:02:28.353Z,100559.25
2022-11-30T09:04:55.819Z,100561.72
2022-11-30T09:07:23.442Z,100561.34
2022-11-30T09:09:50.845Z,100562.63
2022-11-30T09:12:18.397Z,100559.53
2022-11-30T09:14:53.940Z,100568.87
2022-11-30T09:17:24.933Z,100561.94
2022-11-30T09:19:52.679Z,100566.91
2022-11-30T09:22:20.145Z,100564.69
2022-11-30T09:24:47.646Z,100562.69
2022-11-30T09:27:15.649Z,100561.34
2022-11-30T09:29:42.977Z,100565.66
2022-11-30T09:32:10.304Z,100563.31
2022-11-30T09:34:38.472Z,100570.28
2022-11-30T09:37:05.842Z,100563.69
2022-11-30T09:39:33.155Z,100559.63
2022-11-30T09:42:22.048Z,100564.56
2022-11-30T09:45:15.812Z,100570.34
2022-11-30T09:47:57.469Z,100567.59
2022-11-30T09:50:28.186Z,100557.81
2022-11-30T09:52:58.843Z,100556.84
2022-11-30T09:55:39.427Z,100554.97
2022-11-30T09:58:07.596Z,100553.94
2022-11-30T10:00:35.200Z,100552.47
2022-11-30T10:03:04.733Z,100551.72
2022-11-30T10:05:46.096Z,100553.75
2022-11-30T10:08:27.256Z,100555.84
2022-11-30T10:11:14.648Z,100555.94
2022-11-30T10:13:42.154Z,100546.59
2022-11-30T10:16:20.708Z,100541.25
2022-11-30T10:19:01.076Z,100547.44
2022-11-30T10:22:02.591Z,100547.59
2022-11-30T10:24:39.098Z,100537.69
2022-11-30T10:27:46.020Z,100533.13
2022-11-30T10:30:22.217Z,100527.53
2022-11-30T10:32:58.752Z,100526.38
2022-11-30T10:35:39.150Z,100514.19
2022-11-30T10:38:27.919Z,100519.66
2022-11-30T10:41:01.474Z,100517.66
2022-11-30T10:43:38.756Z,100529.44
2022-11-30T10:46:06.493Z,100520.12
2022-11-30T10:49:02.704Z,100521.41
2022-11-30T10:51:31.016Z,100524.06
2022-11-30T10:53:58.673Z,100531.28
2022-11-30T10:56:26.083Z,100526.72
2022-11-30T10:59:17.284Z,100524.34
2022-11-30T11:01:44.737Z,100519.38
2022-11-30T11:04:12.390Z,100516.44
2022-11-30T11:06:43.535Z,100511.44
2022-11-30T11:09:49.137Z,100514.50
2022-11-30T11:12:26.382Z,100521.72
2022-11-30T11:15:23.419Z,100510.34
2022-11-30T11:17:52.243Z,100515.59
2022-11-30T11:20:35.636Z,100511.28
2022-11-30T11:23:04.309Z,100508.81
2022-11-30T11:25:34.655Z,100513.88
2022-11-30T11:28:14.692Z,100517.75
2022-11-30T11:30:42.509Z,100512.38
2022-11-30T11:33:13.237Z,100514.66
2022-11-30T11:35:49.464Z,100519.22
2022-11-30T11:38:47.312Z,100526.16
2022-11-30T11:41:31.418Z,100515.03
2022-11-30T11:44:23.022Z,100527.25
2022-11-30T11:46:57.338Z,100523.19
2022-11-30T11:49:27.941Z,100520.41
2022-11-30T11:52:02.245Z,100527.03
2022-11-30T11:54:55.438Z,100524.94
2022-11-30T11:57:40.461Z,100519.00
2022-11-30T12:00:19.073Z,100515.03
2022-11-30T12:03:18.979Z,100503.28
2022-11-30T12:05:50.343Z,100499.84
2022-11-30T12:08:39.923Z,100496.38
2022-11-30T12:11:25.065Z,100493.38
2022-11-30T12:13:53.749Z,100502.13
2022-11-30T12:16:40.608Z,100500.28
2022-11-30T12:19:14.287Z,100501.00
2022-11-30T12:22:06.369Z,100499.06
2022-11-30T12:25:02.758Z,100491.22
2022-11-30T12:27:50.429Z,100495.75
2022-11-30T12:30:26.106Z,100488.16
2022-11-30T12:33:35.051Z,100485.75
2022-11-30T12:36:05.909Z,100486.12
2022-11-30T12:38:50.297Z,100485.94
2022-11-30T12:41:33.116Z,100489.50
2022-11-30T12:44:23.374Z,100487.28
2022-11-30T12:47:18.432Z,100496.41
2022-11-30T12:49:48.789Z,100485.75
2022-11-30T12:52:37.305Z,100484.97
2022-11-30T12:55:35.372Z,100485.56
2022-11-30T12:58:27.818Z,100480.31
2022-11-30T13:01:08.878Z,100476.69
2022-11-30T13:03:45.402Z,100481.41
2022-11-30T13:06:18.504Z,100483.25
2022-11-30T13:09:21.556Z,100477.47
2022-11-30T13:11:53.899Z,100477.47
2022-11-30T13:14:23.289Z,100478.53
2022-11-30T13:16:58.278Z,100469.97
2022-11-30T13:19:42.920Z,100475.06
2022-11-30T13:22:37.941Z,100484.66
2022-11-30T13:26:06.357Z,100479.59
2022-11-30T13:28:42.518Z,100481.03
2022-11-30T13:31:34.129Z,100482.28
2022-11-30T13:34:02.045Z,100488.34
2022-11-30T13:36:45.400Z,100491.22
2022-11-30T13:39:16.369Z,100484.44
2022-11-30T13:41:46.437Z,100493.53
2022-11-30T13:44:32.437Z,100488.19
2022-11-30T13:47:30.535Z,100495.31
2022-11-30T13:50:06.990Z,100488.88
2022-11-30T13:53:02.619Z,100493.19
2022-11-30T13:55:35.894Z,100495.13
2022-11-30T13:58:07.497Z,100495.47
2022-11-30T14:00:34.745Z,100504.41
2022-11-30T14:03:20.416Z,100504.06
2022-11-30T14:05:53.976Z,100499.31
2022-11-30T14:08:21.410Z,100496.47
2022-11-30T14:10:53.292Z,100496.09
2022-11-30T14:13:23.490Z,100497.44
2022-11-30T14:15:52.820Z,100497.78
2022-11-30T14:18:20.203Z,100491.72
2022-11-30T14:20:51.884Z,100501.00
2022-11-30T14:23:40.598Z,100496.72
2022-11-30T14:26:13.519Z,100492.44
2022-11-30T14:29:02.508Z,100494.13
2022-11-30T14:31:48.051Z,100494.91
2022-11-30T14:34:19.057Z,100495.50
2022-11-30T14:36:50.839Z,100485.91
2022-11-30T14:39:31.679Z,100493.75
2022-11-30T14:41:59.674Z,100497.38
2022-11-30T14:44:27.885Z,100488.06
2022-11-30T14:46:55.241Z,100493.84
2022-11-30T14:49:24.098Z,100498.78
2022-11-30T14:52:02.214Z,100494.13
2022-11-30T14:54:42.052Z,100489.06
2022-11-30T14:57:20.319Z,100490.25
2022-11-30T14:59:51.609Z,100485.75
2022-11-30T15:02:34.234Z,100484.87
2022-11-30T15:05:01.885Z,100483.16
2022-11-30T15:07:29.820Z,100482.56
2022-11-30T15:10:04.925Z,100480.81
2022-11-30T15:12:33.480Z,100483.78
2022-11-30T15:15:07.139Z,100492.22
2022-11-30T15:17:45.708Z,100496.75
2022-11-30T15:20:24.447Z,100494.37
2022-11-30T15:22:53.954Z,100490.97
2022-11-30T15:25:21.963Z,100503.78
2022-11-30T15:27:49.423Z,100492.19
2022-11-30T15:30:17.860Z,100494.09
2022-11-30T15:32:46.927Z,100493.69
2022-11-30T15:35:22.994Z,100491.56
2022-11-30T15:37:51.113Z,100492.22
2022-11-30T15:40:33.160Z,100488.06
2022-11-30T15:43:01.910Z,100497.50
2022-11-30T15:45:32.797Z,100488.06
2022-11-30T15:48:00.990Z,100495.94
2022-11-30T15:50:28.563Z,100486.25
2022-11-30T15:52:57.632Z,100487.78
2022-11-30T15:55:43.172Z,100487.81
2022-11-30T15:58:35.019Z,100493.16
2022-11-30T16:01:24.845Z,100495.47
2022-11-30T16:03:55.551Z,100492.00
2022-11-30T16:06:24.327Z,100491.47
2022-11-30T16:08:51.986Z,100490.66
2022-11-30T16:11:19.759Z,100491.72
2022-11-30T16:13:47.448Z,100486.75
2022-11-30T16:16:21.885Z,100483.84
2022-11-30T16:18:50.419Z,100475.66
2022-11-30T16:21:18.983Z,100477.81
2022-11-30T16:23:47.899Z,100479.03
2022-11-30T16:29:05.767Z,100481.19
2022-11-30T16:31:34.504Z,100473.69
2022-11-30T16:34:01.838Z,100476.03
2022-11-30T16:36:30.699Z,100479.19
2022-11-30T16:38:58.440Z,100478.47
2022-11-30T16:41:28.887Z,100490.38
2022-11-30T16:43:57.670Z,100484.19
2022-11-30T16:46:28.189Z,100482.84
2022-11-30T16:48:57.067Z,100488.16
2022-11-30T16:51:34.568Z,100483.09
2022-11-30T16:54:02.063Z,100483.44
2022-11-30T16:56:30.150Z,100492.81
2022-11-30T16:58:57.528Z,100498.56
2022-11-30T17:01:37.452Z,100486.06
2022-11-30T17:04:26.604Z,100504.91
2022-11-30T17:07:00.540Z,100503.66
2022-11-30T17:09:30.625Z,100493.19
2022-11-30T17:11:58.427Z,100490.56
2022-11-30T17:14:26.682Z,100486.81
2022-11-30T17:16:54.588Z,100484.34
2022-11-30T17:19:23.022Z,100488.91
2022-11-30T17:21:51.275Z,100495.00
2022-11-30T17:24:19.431Z,100498.88
2022-11-30T17:26:47.423Z,100492.50
2022-11-30T17:29:15.385Z,100492.22
2022-11-30T17:31:43.151Z,100501.06
2022-11-30T17:34:10.723Z,100502.69
2022-11-30T17:36:38.691Z,100503.38
2022-11-30T17:39:07.797Z,100503.81
2022-11-30T17:41:35.384Z,100504.97
2022-11-30T17:44:03.193Z,100510.41
2022-11-30T17:46:31.066Z,100521.56
2022-11-30T17:48:58.917Z,100525.69
2022-11-30T17:51:26.744Z,100517.22
2022-11-30T17:53:54.870Z,100512.78
2022-11-30T17:56:22.599Z,100513.59
2022-11-30T17:58:50.387Z,100525.09
2022-11-30T18:01:25.473Z,100521.13
2022-11-30T18:03:54.238Z,100519.88
2022-11-30T18:06:22.216Z,100512.59
2022-11-30T18:08:49.983Z,100519.00
2022-11-30T18:11:20.787Z,100519.50
2022-11-30T18:13:51.993Z,100517.09
2022-11-30T18:16:24.643Z,100514.09
2022-11-30T18:18:53.321Z,100515.06
2022-11-30T18:21:22.668Z,100504.03
2022-11-30T18:23:51.191Z,100514.09
2022-11-30T18:26:20.798Z,100516.44
2022-11-30T18:28:57.855Z,100520.06
2022-11-30T18:31:26.332Z,100527.69
2022-11-30T18:33:58.921Z,100529.13
2022-11-30T18:36:27.080Z,100532.91
2022-11-30T18:38:55.499Z,100529.19
2022-11-30T18:41:26.480Z,100522.22
2022-11-30T18:43:55.122Z,100528.72
2022-11-30T18:46:23.841Z,100528.13
2022-11-30T18:48:55.396Z,100530.41
2022-11-30T18:51:28.301Z,100534.06
2022-11-30T18:54:01.829Z,100525.59
2022-11-30T18:56:32.501Z,100525.53
2022-11-30T18:59:02.778Z,100519.06
2022-11-30T19:01:31.319Z,100525.66
2022-11-30T19:04:02.519Z,100523.22
2022-11-30T19:06:33.217Z,100516.75
2022-11-30T19:09:03.912Z,100523.00
2022-11-30T19:11:35.429Z,100529.28
2022-11-30T19:14:04.162Z,100530.06
2022-11-30T19:16:35.397Z,100526.44
2022-11-30T19:19:05.939Z,100530.56
2022-11-30T19:21:34.625Z,100534.12
2022-11-30T19:24:02.541Z,100535.87
2022-11-30T19:26:30.176Z,100535.81
2022-11-30T19:28:59.341Z,100533.78
2022-11-30T19:31:30.022Z,100529.19
2022-11-30T19:33:58.390Z,100532.88
2022-11-30T19:36:27.827Z,100540.44
2022-11-30T19:38:56.773Z,100536.72
2022-11-30T19:41:25.284Z,100540.78
2022-11-30T19:44:03.879Z,100549.84
2022-11-30T19:46:33.564Z,100549.78
2022-11-30T19:49:02.045Z,100545.69
2022-11-30T19:51:31.200Z,100546.50
2022-11-30T19:54:10.738Z,100542.25
2022-11-30T19:56:44.702Z,100543.56
2022-11-30T19:59:12.999Z,100543.16
2022-11-30T20:01:41.045Z,100545.81
2022-11-30T20:04:09.703Z,100541.53
2022-11-30T20:06:38.942Z,100538.25
2022-11-30T20:09:08.100Z,100542.81
2022-11-30T20:11:36.745Z,100540.03
2022-11-30T20:14:04.940Z,100533.31
2022-11-30T20:16:33.045Z,100535.75
2022-11-30T20:19:02.344Z,100529.88
2022-11-30T20:21:32.919Z,100531.53
2022-11-30T20:24:04.822Z,100532.94
2022-11-30T20:26:43.231Z,100531.91
2022-11-30T20:29:16.363Z,100525.91
2022-11-30T20:31:46.944Z,100524.47
2022-11-30T20:34:16.432Z,100525.56
2022-11-30T20:36:44.332Z,100535.06
2022-11-30T20:39:12.201Z,100535.28
2022-11-30T20:41:42.673Z,100530.97
2022-11-30T20:44:15.432Z,100539.63
2022-11-30T20:46:45.400Z,100534.41
2022-11-30T20:49:18.912Z,100532.94
2022-11-30T20:51:47.647Z,100537.50
2022-11-30T20:54:18.047Z,100530.69
2022-11-30T20:56:48.865Z,100537.63
2022-11-30T20:59:23.731Z,100534.75
2022-11-30T21:01:51.885Z,100533.81
2022-11-30T21:04:21.789Z,100530.97
2022-11-30T21:06:49.448Z,100536.97
2022-11-30T21:09:18.217Z,100530.31
2022-11-30T21:11:46.684Z,100530.53
2022-11-30T21:14:14.778Z,100531.25
2022-11-30T21:16:42.566Z,100538.16
2022-11-30T21:19:11.790Z,100546.13
2022-11-30T21:21:39.124Z,100539.47
2022-11-30T21:24:08.624Z,100553.19
2022-11-30T21:26:39.052Z,100552.03
2022-11-30T21:29:14.561Z,100562.25
2022-11-30T21:31:42.750Z,100555.44
2022-11-30T21:34:10.368Z,100564.50
2022-11-30T21:36:37.712Z,100568.41
2022-11-30T21:39:09.052Z,100569.53
2022-11-30T21:41:37.962Z,100576.69
2022-11-30T21:44:07.144Z,100580.31
2022-11-30T21:46:34.585Z,100585.63
2022-11-30T21:49:02.212Z,100582.28
2022-11-30T21:51:31.795Z,100583.03
2022-11-30T21:54:01.431Z,100580.69
2022-11-30T21:56:31.199Z,100599.00
2022-11-30T21:58:59.149Z,100589.53
2022-11-30T22:01:29.256Z,100596.09
2022-11-30T22:04:01.190Z,100594.53
2022-11-30T22:06:29.676Z,100597.81
2022-11-30T22:09:03.403Z,100591.12
2022-11-30T22:11:31.252Z,100598.12
2022-11-30T22:13:58.993Z,100601.50
2022-11-30T22:16:32.425Z,100593.94
2022-11-30T22:19:06.077Z,100593.47
2022-11-30T22:21:33.918Z,100598.00
2022-11-30T22:24:06.319Z,100585.38
2022-11-30T22:26:35.910Z,100590.31
2022-11-30T22:29:14.169Z,100586.63
2022-11-30T22:31:44.145Z,100590.19
2022-11-30T22:34:11.838Z,100582.16
2022-11-30T22:36:41.184Z,100584.62
2022-11-30T22:39:14.753Z,100586.84
2022-11-30T22:41:43.124Z,100581.09
2022-11-30T22:44:14.915Z,100573.56
2022-11-30T22:46:44.038Z,100574.25
2022-11-30T22:49:19.843Z,100578.66
2022-11-30T22:51:49.031Z,100572.84
2022-11-30T22:54:16.898Z,100560.31
2022-11-30T22:56:46.455Z,100565.25
2022-11-30T22:59:15.017Z,100567.38
2022-11-30T23:01:47.374Z,100563.47
2022-11-30T23:04:17.009Z,100563.91
2022-11-30T23:06:45.475Z,100560.09
2022-11-30T23:09:15.377Z,100548.50
2022-11-30T23:11:42.742Z,100544.31
2022-11-30T23:14:12.094Z,100548.34
2022-11-30T23:16:39.823Z,100535.25
2022-11-30T23:19:08.004Z,100543.78
2022-11-30T23:21:41.505Z,100542.97
2022-11-30T23:24:13.677Z,100547.31
2022-11-30T23:26:41.737Z,100548.13
2022-11-30T23:29:11.753Z,100553.97
2022-11-30T23:31:40.296Z,100558.75
2022-11-30T23:34:19.280Z,100547.34
2022-11-30T23:36:48.398Z,100555.41
2022-11-30T23:39:18.229Z,100561.38
2022-11-30T23:41:45.948Z,100557.19
2022-11-30T23:44:13.461Z,100562.34
2022-11-30T23:46:41.149Z,100561.25
2022-11-30T23:49:08.609Z,100554.38
2022-11-30T23:51:35.998Z,100559.78
2022-11-30T23:54:03.754Z,100552.00
2022-11-30T23:56:31.134Z,100572.25
2022-11-30T23:58:58.484Z,100565.38
